Time;durP1;ratioP1;P1;durP2;ratioP2;P2;SDS_P1;SDS_P2;PMS_P1;PMS_P2;Temp;Humidity;BMP_temperature;BMP_pressure;BME280_temperature;BME280_humidity;BME280_pressure;Samples;Min_cycle;Max_cycle;Signal;HPM_P1;HPM_P2
2023/04/22 00:01:41;;;;;;;24.17;22.57;;;;;;;;;;5038568;28;20498;-84
2023/04/22 00:04:08;;;;;;;24.40;22.90;;;;;;;;;;5038392;28;20488;-86
2023/04/22 00:06:35;;;;;;;24.07;22.47;;;;;;;;;;5034209;28;20411;-83
2023/04/22 00:09:02;;;;;;;25.30;23.60;;;;;;;;;;5037059;28;20438;-84
2023/04/22 00:11:29;;;;;;;25.50;23.87;;;;;;;;;;5035780;28;20938;-84
2023/04/22 00:13:58;;;;;;;25.13;23.63;;;;;;;;;;5039793;28;20437;-84
2023/04/22 00:16:25;;;;;;;25.87;23.90;;;;;;;;;;5042104;28;20990;-84
2023/04/22 00:18:52;;;;;;;25.13;23.63;;;;;;;;;;5042848;28;20469;-84
2023/04/22 00:21:19;;;;;;;25.30;23.60;;;;;;;;;;5042949;28;20459;-84
2023/04/22 00:23:46;;;;;;;25.47;23.80;;;;;;;;;;5042151;28;20478;-84
2023/04/22 00:26:13;;;;;;;26.20;24.43;;;;;;;;;;5041703;28;20468;-84
2023/04/22 00:28:40;;;;;;;25.53;23.60;;;;;;;;;;5042533;28;20467;-84
2023/04/22 00:31:08;;;;;;;25.70;24.10;;;;;;;;;;5043745;28;20468;-84
2023/04/22 00:33:36;;;;;;;25.77;23.67;;;;;;;;;;5043702;28;20456;-84
2023/04/22 00:36:03;;;;;;;25.00;23.40;;;;;;;;;;5042630;28;20457;-84
2023/04/22 00:38:31;;;;;;;24.63;22.83;;;;;;;;;;5042234;28;20508;-84
2023/04/22 00:40:58;;;;;;;24.33;22.73;;;;;;;;;;5043618;28;20916;-85
2023/04/22 00:43:25;;;;;;;25.30;23.50;;;;;;;;;;5044409;28;20426;-84
2023/04/22 00:45:52;;;;;;;25.50;23.30;;;;;;;;;;5043096;28;20527;-83
2023/04/22 00:48:20;;;;;;;24.83;23.13;;;;;;;;;;5041897;28;20811;-83
2023/04/22 00:50:47;;;;;;;25.80;24.00;;;;;;;;;;5042809;28;20448;-84
2023/04/22 00:53:14;;;;;;;24.93;23.33;;;;;;;;;;5043826;28;20448;-84
2023/04/22 00:55:41;;;;;;;23.53;22.07;;;;;;;;;;5043279;28;20479;-84
2023/04/22 00:58:10;;;;;;;25.37;23.27;;;;;;;;;;5042496;28;20513;-84
2023/04/22 01:00:37;;;;;;;24.70;22.80;;;;;;;;;;5042727;28;20430;-84
2023/04/22 01:03:06;;;;;;;25.23;23.73;;;;;;;;;;5049988;28;20456;-84
2023/04/22 01:05:35;;;;;;;25.50;23.90;;;;;;;;;;5054718;28;20850;-84
2023/04/22 01:08:02;;;;;;;25.00;23.20;;;;;;;;;;5054728;28;20474;-84
2023/04/22 01:10:29;;;;;;;24.80;23.27;;;;;;;;;;5047972;28;20804;-84
2023/04/22 01:12:56;;;;;;;24.60;22.80;;;;;;;;;;5046421;28;20434;-84
2023/04/22 01:15:23;;;;;;;24.60;22.80;;;;;;;;;;5046108;28;20443;-84
2023/04/22 01:17:51;;;;;;;24.03;22.53;;;;;;;;;;5045297;28;20457;-84
2023/04/22 01:20:18;;;;;;;25.27;23.50;;;;;;;;;;5042678;28;20458;-84
2023/04/22 01:22:47;;;;;;;24.30;22.60;;;;;;;;;;5043596;28;20538;-84
2023/04/22 01:25:15;;;;;;;23.87;22.17;;;;;;;;;;5044008;28;20447;-84
2023/04/22 01:27:43;;;;;;;24.50;22.80;;;;;;;;;;5043233;28;20447;-85
2023/04/22 01:30:10;;;;;;;25.47;23.10;;;;;;;;;;5040645;28;20855;-84
2023/04/22 01:32:37;;;;;;;23.77;22.30;;;;;;;;;;5036421;28;20519;-83
2023/04/22 01:35:05;;;;;;;25.83;23.77;;;;;;;;;;5036816;28;20426;-84
2023/04/22 01:37:33;;;;;;;25.27;23.23;;;;;;;;;;5035271;28;20541;-84
2023/04/22 01:40:00;;;;;;;25.13;23.20;;;;;;;;;;5037565;28;20488;-84
2023/04/22 01:42:28;;;;;;;24.70;23.00;;;;;;;;;;5038872;28;20468;-84
2023/04/22 01:44:55;;;;;;;24.43;22.93;;;;;;;;;;5037396;28;20456;-83
2023/04/22 01:47:22;;;;;;;25.70;24.00;;;;;;;;;;5037722;28;20410;-85
2023/04/22 01:49:50;;;;;;;25.53;23.70;;;;;;;;;;5040644;28;20759;-84
2023/04/22 01:52:17;;;;;;;25.00;23.37;;;;;;;;;;5041548;28;20422;-84
2023/04/22 01:54:45;;;;;;;24.83;23.03;;;;;;;;;;5042136;28;20430;-84
2023/04/22 01:57:15;;;;;;;25.47;23.83;;;;;;;;;;5041226;28;20502;-84
2023/04/22 01:59:43;;;;;;;23.93;22.43;;;;;;;;;;5042745;28;20471;-85
2023/04/22 02:02:10;;;;;;;24.40;23.00;;;;;;;;;;5043219;28;20454;-84
2023/04/22 02:04:37;;;;;;;25.37;23.70;;;;;;;;;;5045299;28;20450;-84
2023/04/22 02:07:04;;;;;;;26.03;23.77;;;;;;;;;;5047289;28;20418;-84
2023/04/22 02:09:32;;;;;;;25.83;24.17;;;;;;;;;;5044478;28;20460;-84
2023/04/22 02:12:00;;;;;;;25.60;24.00;;;;;;;;;;5045440;28;20455;-84
2023/04/22 02:14:27;;;;;;;26.67;24.90;;;;;;;;;;5044560;28;20426;-84
2023/04/22 02:16:55;;;;;;;25.67;23.97;;;;;;;;;;5042964;28;20492;-84
2023/04/22 02:19:22;;;;;;;24.87;23.20;;;;;;;;;;5043486;28;20477;-84
2023/04/22 02:21:49;;;;;;;24.97;23.20;;;;;;;;;;5043466;28;20444;-84
2023/04/22 02:24:16;;;;;;;25.27;23.60;;;;;;;;;;5041082;28;20482;-84
2023/04/22 02:26:43;;;;;;;24.77;23.20;;;;;;;;;;5037457;28;20473;-83
2023/04/22 02:29:10;;;;;;;25.50;23.80;;;;;;;;;;5037275;28;20461;-84
2023/04/22 02:31:37;;;;;;;24.27;22.70;;;;;;;;;;5037643;28;20490;-83
2023/04/22 02:34:06;;;;;;;24.20;22.60;;;;;;;;;;5036335;28;20517;-84
2023/04/22 02:36:33;;;;;;;25.00;23.30;;;;;;;;;;5035861;28;20597;-84
2023/04/22 02:39:03;;;;;;;24.93;23.40;;;;;;;;;;5035960;28;20537;-83
2023/04/22 02:41:30;;;;;;;25.13;23.70;;;;;;;;;;5037272;28;20435;-83
2023/04/22 02:43:57;;;;;;;24.70;23.10;;;;;;;;;;5036351;28;20451;-83
2023/04/22 02:46:24;;;;;;;25.03;23.33;;;;;;;;;;5035563;28;20490;-84
2023/04/22 02:48:51;;;;;;;24.77;23.27;;;;;;;;;;5036229;28;20431;-83
2023/04/22 02:51:20;;;;;;;24.20;22.50;;;;;;;;;;5038566;28;20430;-84
2023/04/22 02:53:47;;;;;;;24.40;22.80;;;;;;;;;;5036535;28;20482;-84
2023/04/22 02:56:14;;;;;;;25.53;23.63;;;;;;;;;;5035366;28;20456;-83
2023/04/22 02:58:42;;;;;;;24.03;22.43;;;;;;;;;;5036416;28;21020;-84
2023/04/22 03:01:09;;;;;;;25.10;23.47;;;;;;;;;;5038006;28;20451;-84
2023/04/22 03:03:36;;;;;;;24.80;23.13;;;;;;;;;;5038239;28;20932;-84
2023/04/22 03:06:03;;;;;;;24.90;23.37;;;;;;;;;;5036831;28;20514;-84
2023/04/22 03:08:31;;;;;;;25.23;23.50;;;;;;;;;;5037206;28;20842;-84
2023/04/22 03:10:58;;;;;;;23.80;22.40;;;;;;;;;;5037555;28;20417;-84
2023/04/22 03:13:25;;;;;;;24.20;22.80;;;;;;;;;;5037921;28;20762;-84
2023/04/22 03:15:52;;;;;;;24.20;22.60;;;;;;;;;;5036103;28;20521;-84
2023/04/22 03:18:19;;;;;;;25.93;24.03;;;;;;;;;;5036528;28;20980;-84
2023/04/22 03:20:46;;;;;;;24.47;22.97;;;;;;;;;;5035823;28;20517;-84
2023/04/22 03:23:13;;;;;;;24.83;23.33;;;;;;;;;;5036999;28;20819;-84
2023/04/22 03:25:41;;;;;;;24.27;22.83;;;;;;;;;;5036204;28;20455;-84
2023/04/22 03:28:09;;;;;;;24.13;22.73;;;;;;;;;;5036904;28;20924;-84
2023/04/22 03:30:36;;;;;;;23.67;22.30;;;;;;;;;;5036655;28;20438;-84
2023/04/22 03:33:03;;;;;;;23.80;22.20;;;;;;;;;;5037948;28;21010;-84
2023/04/22 03:35:30;;;;;;;23.23;21.90;;;;;;;;;;5036855;28;20456;-84
2023/04/22 03:37:57;;;;;;;25.30;23.80;;;;;;;;;;5036606;28;20488;-84
2023/04/22 03:40:24;;;;;;;25.30;23.70;;;;;;;;;;5036472;28;20451;-83
2023/04/22 03:42:52;;;;;;;25.00;23.30;;;;;;;;;;5036977;28;20456;-84
2023/04/22 03:45:19;;;;;;;24.40;22.90;;;;;;;;;;5036058;28;20429;-83
2023/04/22 03:47:46;;;;;;;25.17;23.47;;;;;;;;;;5036685;28;20425;-84
2023/04/22 03:50:13;;;;;;;24.30;22.80;;;;;;;;;;5035375;28;20476;-84
2023/04/22 03:52:40;;;;;;;25.43;23.83;;;;;;;;;;5036983;28;20434;-84
2023/04/22 03:55:08;;;;;;;26.47;24.67;;;;;;;;;;5036575;28;20410;-84
2023/04/22 03:57:35;;;;;;;25.60;23.90;;;;;;;;;;5034991;28;20483;-84
2023/04/22 04:00:03;;;;;;;26.20;24.30;;;;;;;;;;5036261;28;20518;-84
2023/04/22 04:02:30;;;;;;;25.60;24.00;;;;;;;;;;5036651;28;21042;-83
2023/04/22 04:04:57;;;;;;;25.23;23.47;;;;;;;;;;5018931;28;20462;-84
2023/04/22 04:07:24;;;;;;;25.07;23.40;;;;;;;;;;5036299;28;20502;-84
2023/04/22 04:09:51;;;;;;;27.70;25.67;;;;;;;;;;5035701;28;20549;-84
2023/04/22 04:12:18;;;;;;;24.57;23.17;;;;;;;;;;5037225;28;20460;-84
2023/04/22 04:14:45;;;;;;;24.53;23.03;;;;;;;;;;5036216;28;21002;-79
2023/04/22 04:17:13;;;;;;;24.57;23.10;;;;;;;;;;5035699;28;20483;-81
2023/04/22 04:19:40;;;;;;;25.00;23.50;;;;;;;;;;5034785;28;20491;-80
2023/04/22 04:22:08;;;;;;;25.30;23.57;;;;;;;;;;5035135;28;20430;-80
2023/04/22 04:24:40;;;;;;;25.13;23.60;;;;;;;;;;5035180;28;21014;-79
2023/04/22 04:27:08;;;;;;;25.57;24.07;;;;;;;;;;5034777;28;20406;-80
2023/04/22 04:29:35;;;;;;;25.70;24.00;;;;;;;;;;5034464;28;20460;-80
2023/04/22 04:32:03;;;;;;;26.70;24.70;;;;;;;;;;5034699;28;20446;-80
2023/04/22 04:34:33;;;;;;;25.23;23.63;;;;;;;;;;5035542;28;20444;-81
2023/04/22 04:37:00;;;;;;;26.27;23.97;;;;;;;;;;5034982;28;20562;-80
2023/04/22 04:39:28;;;;;;;25.50;24.00;;;;;;;;;;5035313;28;20567;-80
2023/04/22 04:41:57;;;;;;;25.60;24.00;;;;;;;;;;5035314;28;20463;-80
2023/04/22 04:44:25;;;;;;;24.27;22.70;;;;;;;;;;5034819;28;20467;-79
2023/04/22 04:46:53;;;;;;;24.77;23.27;;;;;;;;;;5034848;28;20430;-79
2023/04/22 04:49:20;;;;;;;25.53;23.90;;;;;;;;;;5035073;28;20859;-80
2023/04/22 04:51:49;;;;;;;25.20;23.63;;;;;;;;;;5035257;28;20716;-80
2023/04/22 04:54:16;;;;;;;26.00;23.93;;;;;;;;;;5034056;28;20488;-80
2023/04/22 04:56:43;;;;;;;25.00;23.30;;;;;;;;;;5034027;28;20406;-80
2023/04/22 04:59:10;;;;;;;25.30;23.73;;;;;;;;;;5034740;28;20479;-80
2023/04/22 05:01:37;;;;;;;25.43;23.80;;;;;;;;;;5036357;28;20458;-80
2023/04/22 05:04:04;;;;;;;24.50;23.00;;;;;;;;;;5037934;28;20491;-80
2023/04/22 05:06:31;;;;;;;24.13;22.47;;;;;;;;;;5038268;28;20458;-80
2023/04/22 05:08:59;;;;;;;24.50;23.00;;;;;;;;;;5038611;28;20435;-80
2023/04/22 05:11:26;;;;;;;24.70;23.00;;;;;;;;;;5037739;28;21009;-80
2023/04/22 05:13:53;;;;;;;25.33;23.33;;;;;;;;;;5038285;28;20453;-80
2023/04/22 05:16:20;;;;;;;23.60;22.20;;;;;;;;;;5038245;28;20426;-80
2023/04/22 05:18:48;;;;;;;26.57;24.67;;;;;;;;;;5038164;28;20465;-80
2023/04/22 05:21:15;;;;;;;25.27;23.87;;;;;;;;;;5038678;28;20446;-80
2023/04/22 05:23:42;;;;;;;25.03;23.60;;;;;;;;;;5038246;28;20428;-80
2023/04/22 05:26:11;;;;;;;24.83;23.33;;;;;;;;;;5037660;28;20488;-80
2023/04/22 05:28:38;;;;;;;24.73;23.17;;;;;;;;;;5037674;28;20577;-80
2023/04/22 05:31:05;;;;;;;24.40;22.90;;;;;;;;;;5038181;28;20434;-80
2023/04/22 05:33:32;;;;;;;24.20;22.30;;;;;;;;;;5037910;28;20452;-80
2023/04/22 05:35:59;;;;;;;23.97;22.47;;;;;;;;;;5036645;28;20797;-80
2023/04/22 05:38:26;;;;;;;25.20;23.70;;;;;;;;;;5038268;28;20497;-79
2023/04/22 05:40:53;;;;;;;24.30;22.60;;;;;;;;;;5058219;28;20431;-80
2023/04/22 05:43:21;;;;;;;25.40;23.80;;;;;;;;;;5059395;28;20437;-80
2023/04/22 05:45:48;;;;;;;24.00;22.60;;;;;;;;;;5051231;28;20468;-80
2023/04/22 05:48:15;;;;;;;25.17;23.37;;;;;;;;;;5039090;28;20426;-81
2023/04/22 05:50:42;;;;;;;25.30;23.50;;;;;;;;;;5018794;28;20422;-80
2023/04/22 05:53:09;;;;;;;24.47;22.87;;;;;;;;;;5038215;28;20484;-80
2023/04/22 05:55:36;;;;;;;24.67;23.10;;;;;;;;;;5038020;28;20855;-80
2023/04/22 05:58:03;;;;;;;24.53;23.13;;;;;;;;;;5041093;28;20458;-80
2023/04/22 06:00:32;;;;;;;23.60;22.30;;;;;;;;;;5038259;28;20480;-80
2023/04/22 06:02:59;;;;;;;23.73;22.43;;;;;;;;;;5040410;28;20451;-80
2023/04/22 06:05:26;;;;;;;24.67;23.27;;;;;;;;;;5038662;28;20972;-80
2023/04/22 06:07:53;;;;;;;23.80;22.37;;;;;;;;;;5039696;28;20428;-80
2023/04/22 06:10:20;;;;;;;23.53;22.13;;;;;;;;;;5038821;28;20446;-80
2023/04/22 06:12:47;;;;;;;23.50;22.20;;;;;;;;;;5039321;28;20449;-80
2023/04/22 06:15:14;;;;;;;23.93;22.23;;;;;;;;;;5038635;28;20915;-80
2023/04/22 06:17:43;;;;;;;23.27;22.00;;;;;;;;;;5038801;28;20449;-80
2023/04/22 06:20:11;;;;;;;23.60;22.20;;;;;;;;;;5037664;28;20490;-80
2023/04/22 06:22:38;;;;;;;23.20;21.80;;;;;;;;;;5039049;28;20459;-80
2023/04/22 06:25:06;;;;;;;22.70;21.30;;;;;;;;;;5038846;28;20459;-80
2023/04/22 06:27:32;;;;;;;24.17;22.67;;;;;;;;;;5036904;28;20780;-80
2023/04/22 06:30:00;;;;;;;22.53;21.23;;;;;;;;;;5038751;28;20500;-80
2023/04/22 06:32:26;;;;;;;23.70;22.30;;;;;;;;;;5039163;28;20531;-81
2023/04/22 06:34:55;;;;;;;23.40;22.10;;;;;;;;;;5040398;28;20434;-80
2023/04/22 06:37:22;;;;;;;22.80;21.40;;;;;;;;;;5038404;28;20430;-80
2023/04/22 06:39:49;;;;;;;23.07;21.80;;;;;;;;;;5037982;28;20542;-80
2023/04/22 06:42:16;;;;;;;22.83;21.63;;;;;;;;;;5039420;28;20828;-80
2023/04/22 06:44:43;;;;;;;23.87;22.50;;;;;;;;;;5039233;28;20422;-80
2023/04/22 06:47:10;;;;;;;24.00;22.70;;;;;;;;;;5040003;28;20501;-80
2023/04/22 06:49:38;;;;;;;24.10;22.70;;;;;;;;;;5038898;28;20489;-80
2023/04/22 06:52:06;;;;;;;23.97;22.67;;;;;;;;;;5039182;28;20452;-80
2023/04/22 06:54:33;;;;;;;22.87;21.77;;;;;;;;;;5039253;28;20422;-80
2023/04/22 06:57:00;;;;;;;23.90;22.60;;;;;;;;;;5038930;28;20823;-81
2023/04/22 06:59:27;;;;;;;23.43;22.13;;;;;;;;;;5038656;28;20523;-81
2023/04/22 07:01:54;;;;;;;23.27;22.07;;;;;;;;;;5038363;28;20500;-81
2023/04/22 07:04:21;;;;;;;23.20;21.80;;;;;;;;;;5038906;28;20468;-80
2023/04/22 07:06:48;;;;;;;23.30;22.00;;;;;;;;;;5037737;28;20847;-80
2023/04/22 07:09:17;;;;;;;22.83;21.40;;;;;;;;;;5038214;28;20487;-79
2023/04/22 07:11:44;;;;;;;22.40;21.20;;;;;;;;;;5035302;28;20846;-80
2023/04/22 07:14:11;;;;;;;24.00;22.40;;;;;;;;;;5036660;28;20482;-81
2023/04/22 07:16:39;;;;;;;23.70;22.23;;;;;;;;;;5036437;28;20544;-81
2023/04/22 07:19:06;;;;;;;22.27;21.07;;;;;;;;;;5038120;28;20501;-80
2023/04/22 07:21:33;;;;;;;22.43;21.20;;;;;;;;;;5034684;28;20486;-80
2023/04/22 07:24:00;;;;;;;21.83;20.63;;;;;;;;;;5034897;28;20456;-80
2023/04/22 07:26:30;;;;;;;22.77;21.37;;;;;;;;;;5034662;28;20841;-80
2023/04/22 07:28:57;;;;;;;21.83;20.57;;;;;;;;;;5035105;28;20450;-79
2023/04/22 07:31:24;;;;;;;22.73;21.43;;;;;;;;;;5034852;28;20434;-80
2023/04/22 07:33:51;;;;;;;21.83;20.73;;;;;;;;;;5034192;28;20482;-81
2023/04/22 07:36:18;;;;;;;22.80;21.30;;;;;;;;;;5035006;28;20502;-81
2023/04/22 07:38:45;;;;;;;22.90;21.60;;;;;;;;;;5035052;28;20473;-82
2023/04/22 07:41:12;;;;;;;22.93;21.63;;;;;;;;;;5035169;28;20430;-80
2023/04/22 07:43:41;;;;;;;22.57;21.37;;;;;;;;;;5034967;28;20422;-80
2023/04/22 07:46:08;;;;;;;21.80;20.60;;;;;;;;;;5032427;28;20473;-80
2023/04/22 07:48:35;;;;;;;21.23;20.07;;;;;;;;;;5033800;28;20463;-81
2023/04/22 07:51:02;;;;;;;22.20;20.70;;;;;;;;;;5034420;28;20430;-80
2023/04/22 07:53:29;;;;;;;22.77;21.37;;;;;;;;;;5034631;28;20430;-81
2023/04/22 07:55:56;;;;;;;23.10;21.80;;;;;;;;;;5033617;28;21001;-80
2023/04/22 07:58:23;;;;;;;22.53;21.43;;;;;;;;;;5034628;28;20487;-80
2023/04/22 08:00:52;;;;;;;23.07;21.87;;;;;;;;;;5034142;28;20456;-80
2023/04/22 08:03:19;;;;;;;23.17;21.97;;;;;;;;;;5034542;28;20444;-81
2023/04/22 08:05:46;;;;;;;23.90;22.67;;;;;;;;;;5033634;28;20849;-81
2023/04/22 08:08:13;;;;;;;24.27;22.97;;;;;;;;;;5034723;28;20440;-80
2023/04/22 08:10:40;;;;;;;24.37;22.97;;;;;;;;;;5034452;28;20948;-81
2023/04/22 08:13:07;;;;;;;25.90;24.10;;;;;;;;;;5033575;28;20499;-80
2023/04/22 08:15:34;;;;;;;24.10;22.80;;;;;;;;;;5033909;28;20476;-80
2023/04/22 08:18:02;;;;;;;23.30;21.90;;;;;;;;;;5036546;28;20844;-81
2023/04/22 08:20:29;;;;;;;24.00;22.60;;;;;;;;;;5035857;28;20492;-82
2023/04/22 08:22:59;;;;;;;23.97;22.57;;;;;;;;;;5037129;28;20473;-81
2023/04/22 08:25:26;;;;;;;22.93;21.73;;;;;;;;;;5035835;28;20455;-82
2023/04/22 08:27:53;;;;;;;23.63;22.27;;;;;;;;;;5035454;28;20509;-81
2023/04/22 08:30:20;;;;;;;24.47;23.03;;;;;;;;;;5035597;28;20466;-82
2023/04/22 08:32:47;;;;;;;23.50;22.27;;;;;;;;;;5035567;28;20453;-82
2023/04/22 08:35:15;;;;;;;23.33;22.07;;;;;;;;;;5036476;28;20451;-81
2023/04/22 08:37:42;;;;;;;23.93;22.63;;;;;;;;;;5038818;28;20428;-81
2023/04/22 08:40:10;;;;;;;24.17;22.67;;;;;;;;;;5037865;28;20478;-82
2023/04/22 08:42:37;;;;;;;23.00;21.70;;;;;;;;;;5039052;28;20526;-82
2023/04/22 08:45:05;;;;;;;24.10;22.80;;;;;;;;;;5038806;28;20923;-83
2023/04/22 08:47:32;;;;;;;25.87;24.43;;;;;;;;;;5037790;28;20749;-83
2023/04/22 08:50:02;;;;;;;24.60;23.20;;;;;;;;;;5038491;28;20555;-82
2023/04/22 08:52:31;;;;;;;23.70;22.40;;;;;;;;;;5039999;28;20811;-86
2023/04/22 08:54:58;;;;;;;24.13;22.73;;;;;;;;;;5041159;28;20422;-82
2023/04/22 08:57:26;;;;;;;23.80;22.40;;;;;;;;;;5039890;28;20457;-82
2023/04/22 08:59:54;;;;;;;24.77;23.43;;;;;;;;;;5041469;28;20481;-83
2023/04/22 09:02:21;;;;;;;25.40;23.80;;;;;;;;;;5040194;28;20454;-82
2023/04/22 09:04:50;;;;;;;23.70;21.90;;;;;;;;;;5041670;28;20439;-82
2023/04/22 09:07:20;;;;;;;23.40;22.10;;;;;;;;;;5040145;28;20949;-82
2023/04/22 09:09:49;;;;;;;23.37;21.97;;;;;;;;;;5041321;28;20443;-82
2023/04/22 09:12:17;;;;;;;23.30;22.00;;;;;;;;;;5040786;28;20435;-82
2023/04/22 09:14:45;;;;;;;23.80;22.50;;;;;;;;;;5041062;28;20446;-82
2023/04/22 09:17:12;;;;;;;22.93;21.60;;;;;;;;;;5041942;28;20490;-85
2023/04/22 09:19:39;;;;;;;23.47;22.07;;;;;;;;;;5041012;28;20496;-82
2023/04/22 09:22:06;;;;;;;22.80;21.50;;;;;;;;;;5042861;28;20810;-81
2023/04/22 09:24:33;;;;;;;23.70;22.40;;;;;;;;;;5044067;28;20456;-82
2023/04/22 09:27:03;;;;;;;23.67;22.37;;;;;;;;;;5042656;28;20514;-83
2023/04/22 09:29:30;;;;;;;24.03;22.70;;;;;;;;;;5043808;28;20446;-82
2023/04/22 09:31:57;;;;;;;23.80;22.30;;;;;;;;;;5043590;28;20517;-82
2023/04/22 09:34:24;;;;;;;23.40;21.90;;;;;;;;;;5044540;28;20856;-82
2023/04/22 09:36:52;;;;;;;23.77;22.37;;;;;;;;;;5041813;28;20470;-82
2023/04/22 09:39:19;;;;;;;24.13;22.73;;;;;;;;;;5043912;28;20462;-83
2023/04/22 09:41:46;;;;;;;23.30;22.00;;;;;;;;;;5043965;28;20442;-82
2023/04/22 09:44:16;;;;;;;22.40;21.20;;;;;;;;;;5025437;28;20454;-82
2023/04/22 09:46:44;;;;;;;22.80;21.50;;;;;;;;;;5041182;28;20491;-82
2023/04/22 09:49:11;;;;;;;23.47;22.17;;;;;;;;;;5040702;28;20461;-81
2023/04/22 09:51:41;;;;;;;23.77;22.37;;;;;;;;;;5037966;28;20452;-81
2023/04/22 09:54:09;;;;;;;22.87;21.57;;;;;;;;;;5037514;28;20916;-81
2023/04/22 09:56:47;;;;;;;22.63;21.33;;;;;;;;;;5036190;28;20508;-84
2023/04/22 09:59:16;;;;;;;23.13;21.83;;;;;;;;;;5037320;28;20459;-81
2023/04/22 10:01:43;;;;;;;22.83;21.60;;;;;;;;;;5037023;28;20461;-81
2023/04/22 10:04:10;;;;;;;22.97;21.57;;;;;;;;;;5035264;28;20444;-81
2023/04/22 10:06:38;;;;;;;23.03;21.73;;;;;;;;;;5034979;28;20426;-80
2023/04/22 10:09:05;;;;;;;24.20;22.63;;;;;;;;;;5035385;28;20461;-81
2023/04/22 10:11:33;;;;;;;23.30;22.10;;;;;;;;;;5035920;28;20457;-81
2023/04/22 10:14:00;;;;;;;24.40;22.33;;;;;;;;;;5035920;28;20471;-82
2023/04/22 10:16:31;;;;;;;23.30;22.10;;;;;;;;;;5035627;28;20545;-81
2023/04/22 10:18:59;;;;;;;23.00;21.73;;;;;;;;;;5035266;28;20467;-82
2023/04/22 10:21:26;;;;;;;23.60;22.20;;;;;;;;;;5035993;28;20470;-81
2023/04/22 10:23:53;;;;;;;24.40;23.03;;;;;;;;;;5036790;28;20442;-81
2023/04/22 10:26:35;;;;;;;25.93;24.33;;;;;;;;;;5050282;28;20479;-81
2023/04/22 10:29:06;;;;;;;25.97;24.57;;;;;;;;;;5053981;28;20430;-84
2023/04/22 10:31:34;;;;;;;26.57;24.97;;;;;;;;;;5052919;28;20543;-82
2023/04/22 10:34:11;;;;;;;25.60;24.20;;;;;;;;;;5041632;28;20474;-82
2023/04/22 10:36:53;;;;;;;23.80;22.50;;;;;;;;;;5039334;28;20877;-81
2023/04/22 10:39:20;;;;;;;24.47;23.17;;;;;;;;;;5037041;28;20468;-86
2023/04/22 10:41:51;;;;;;;25.93;24.50;;;;;;;;;;5024731;28;20461;-86
2023/04/22 10:44:33;;;;;;;24.33;22.83;;;;;;;;;;5017664;28;20418;-87
2023/04/22 10:50:10;;;;;;;24.13;22.33;;;;;;;;;;5027998;28;20964;-82
2023/04/22 10:52:37;;;;;;;23.47;22.07;;;;;;;;;;5032035;28;20455;-81
2023/04/22 10:55:05;;;;;;;24.03;22.63;;;;;;;;;;5033663;28;20432;-78
2023/04/22 10:57:36;;;;;;;24.63;23.13;;;;;;;;;;5036920;28;20429;-80
2023/04/22 11:00:17;;;;;;;24.20;22.80;;;;;;;;;;5035089;28;20482;-81
2023/04/22 11:02:46;;;;;;;23.07;21.77;;;;;;;;;;5036119;28;20429;-80
2023/04/22 11:05:19;;;;;;;23.33;22.03;;;;;;;;;;5037205;28;20449;-79
2023/04/22 11:07:48;;;;;;;23.10;21.80;;;;;;;;;;5036678;28;20435;-85
2023/04/22 11:10:31;;;;;;;23.13;21.73;;;;;;;;;;5037762;28;20498;-85
2023/04/22 11:12:58;;;;;;;22.37;21.13;;;;;;;;;;5038457;28;20433;-85
2023/04/22 11:15:26;;;;;;;23.90;22.40;;;;;;;;;;5038444;28;20422;-85
2023/04/22 11:17:55;;;;;;;23.77;22.30;;;;;;;;;;5037721;28;20450;-84
2023/04/22 11:20:22;;;;;;;23.70;22.20;;;;;;;;;;5033132;28;20494;-85
2023/04/22 11:22:51;;;;;;;23.73;22.30;;;;;;;;;;5033868;28;20540;-78
2023/04/22 11:25:20;;;;;;;23.00;21.70;;;;;;;;;;5032902;28;20424;-78
2023/04/22 11:27:47;;;;;;;23.00;21.70;;;;;;;;;;5032193;28;20524;-78
2023/04/22 11:30:18;;;;;;;22.50;21.20;;;;;;;;;;5032209;28;20452;-87
2023/04/22 11:32:45;;;;;;;24.30;22.60;;;;;;;;;;5031575;28;20474;-78
2023/04/22 11:35:14;;;;;;;24.10;22.70;;;;;;;;;;5032162;28;20426;-87
2023/04/22 11:37:42;;;;;;;22.97;21.53;;;;;;;;;;5031195;28;20421;-82
2023/04/22 11:40:11;;;;;;;23.60;22.23;;;;;;;;;;5031423;28;20457;-83
2023/04/22 11:42:38;;;;;;;24.93;23.33;;;;;;;;;;5032343;28;20457;-83
2023/04/22 11:45:06;;;;;;;24.33;22.83;;;;;;;;;;5032557;28;20429;-82
2023/04/22 11:47:34;;;;;;;24.30;22.60;;;;;;;;;;5032439;28;20943;-83
2023/04/22 11:50:03;;;;;;;23.33;21.83;;;;;;;;;;5030579;28;20491;-82
2023/04/22 11:52:44;;;;;;;24.50;23.00;;;;;;;;;;5030848;28;20466;-83
2023/04/22 11:55:13;;;;;;;24.30;22.90;;;;;;;;;;5030892;28;20995;-84
2023/04/22 11:57:40;;;;;;;25.13;23.57;;;;;;;;;;5031003;28;20463;-84
2023/04/22 12:00:09;;;;;;;24.43;23.03;;;;;;;;;;5031949;28;20498;-86
2023/04/22 12:02:36;;;;;;;24.00;22.60;;;;;;;;;;5032513;28;20437;-85
2023/04/22 12:05:04;;;;;;;23.23;21.80;;;;;;;;;;5030796;28;20511;-84
2023/04/22 12:07:33;;;;;;;23.53;22.13;;;;;;;;;;5030651;28;20451;-85
2023/04/22 12:10:02;;;;;;;23.80;22.40;;;;;;;;;;5032852;28;20450;-84
2023/04/22 12:12:29;;;;;;;23.90;22.50;;;;;;;;;;5037503;28;20901;-78
2023/04/22 12:14:57;;;;;;;24.13;22.73;;;;;;;;;;5036035;28;20470;-79
2023/04/22 12:17:25;;;;;;;24.63;23.13;;;;;;;;;;5037083;28;20549;-85
2023/04/22 12:19:55;;;;;;;24.03;22.53;;;;;;;;;;5036053;28;20465;-85
2023/04/22 12:22:26;;;;;;;23.10;21.80;;;;;;;;;;5036404;28;20960;-84
2023/04/22 12:24:53;;;;;;;26.27;24.50;;;;;;;;;;5037012;28;20484;-84
2023/04/22 12:27:21;;;;;;;25.30;23.73;;;;;;;;;;5036967;28;20897;-85
2023/04/22 12:29:53;;;;;;;24.73;23.23;;;;;;;;;;5036094;28;20883;-85
2023/04/22 12:32:20;;;;;;;25.17;23.50;;;;;;;;;;5036274;28;20976;-84
2023/04/22 12:34:47;;;;;;;69.63;63.43;;;;;;;;;;5036343;28;20430;-86
2023/04/22 12:37:15;;;;;;;24.37;22.87;;;;;;;;;;5035081;28;20445;-85
2023/04/22 12:39:42;;;;;;;24.07;22.67;;;;;;;;;;5036082;28;20498;-86
2023/04/22 12:42:09;;;;;;;23.90;22.30;;;;;;;;;;5035475;28;21089;-79
2023/04/22 12:44:37;;;;;;;24.13;22.60;;;;;;;;;;5036494;28;20433;-79
2023/04/22 12:47:04;;;;;;;24.93;23.30;;;;;;;;;;5034437;28;20457;-78
2023/04/22 12:49:31;;;;;;;23.20;21.80;;;;;;;;;;5035480;28;20442;-81
2023/04/22 12:51:58;;;;;;;24.13;22.60;;;;;;;;;;5038322;28;20941;-84
2023/04/22 12:54:25;;;;;;;24.63;23.13;;;;;;;;;;5037930;28;20504;-85
2023/04/22 12:56:52;;;;;;;24.20;22.80;;;;;;;;;;5036753;28;20463;-84
2023/04/22 12:59:20;;;;;;;25.77;24.20;;;;;;;;;;5037307;28;20487;-85
2023/04/22 13:01:48;;;;;;;23.63;22.23;;;;;;;;;;5037919;28;20469;-85
2023/04/22 13:04:15;;;;;;;24.10;22.70;;;;;;;;;;5037652;28;20446;-84
2023/04/22 13:06:55;;;;;;;24.73;23.23;;;;;;;;;;5036643;28;20828;-91
2023/04/22 13:09:24;;;;;;;25.17;23.77;;;;;;;;;;5036381;28;20591;-82
2023/04/22 13:11:51;;;;;;;25.00;23.23;;;;;;;;;;5034245;28;20455;-76
2023/04/22 13:14:18;;;;;;;24.37;22.90;;;;;;;;;;5035266;28;20458;-78
2023/04/22 13:16:45;;;;;;;24.00;22.60;;;;;;;;;;5035140;28;20452;-78
2023/04/22 13:19:14;;;;;;;23.73;22.37;;;;;;;;;;5034710;28;20544;-79
2023/04/22 13:21:41;;;;;;;24.60;23.10;;;;;;;;;;5034456;28;20491;-79
2023/04/22 13:24:08;;;;;;;24.90;23.50;;;;;;;;;;5036530;28;20945;-79
2023/04/22 13:26:36;;;;;;;23.83;22.30;;;;;;;;;;5034424;28;20429;-79
2023/04/22 13:29:09;;;;;;;24.80;23.40;;;;;;;;;;5034511;28;20471;-79
2023/04/22 13:31:36;;;;;;;25.30;23.80;;;;;;;;;;5033240;28;20476;-78
2023/04/22 13:34:03;;;;;;;25.07;23.43;;;;;;;;;;5034860;28;20426;-79
2023/04/22 13:36:31;;;;;;;24.40;23.00;;;;;;;;;;5034783;28;20448;-79
2023/04/22 13:38:58;;;;;;;25.40;23.90;;;;;;;;;;5035181;28;21079;-79
2023/04/22 13:41:25;;;;;;;25.20;23.33;;;;;;;;;;5034799;28;20543;-79
2023/04/22 13:43:53;;;;;;;25.30;23.77;;;;;;;;;;5035644;28;20455;-79
2023/04/22 13:46:20;;;;;;;24.87;23.47;;;;;;;;;;5034869;28;20440;-80
2023/04/22 13:48:47;;;;;;;25.13;23.73;;;;;;;;;;5035100;28;20445;-80
2023/04/22 13:51:15;;;;;;;25.00;23.43;;;;;;;;;;5034846;28;20447;-79
2023/04/22 13:53:43;;;;;;;24.37;22.97;;;;;;;;;;5034221;28;20437;-79
2023/04/22 13:56:11;;;;;;;24.90;23.40;;;;;;;;;;5034433;28;20501;-80
2023/04/22 13:58:39;;;;;;;23.87;22.47;;;;;;;;;;5034268;28;20467;-78
2023/04/22 14:01:05;;;;;;;24.80;23.30;;;;;;;;;;5035180;28;20454;-79
2023/04/22 14:03:32;;;;;;;24.23;22.73;;;;;;;;;;5034377;28;20476;-79
2023/04/22 14:06:00;;;;;;;24.30;22.77;;;;;;;;;;5035219;28;20804;-79
2023/04/22 14:08:27;;;;;;;23.80;22.40;;;;;;;;;;5034451;28;20450;-79
2023/04/22 14:10:56;;;;;;;26.10;24.60;;;;;;;;;;5039156;28;20461;-79
2023/04/22 14:13:23;;;;;;;24.80;23.30;;;;;;;;;;5040343;28;20436;-80
2023/04/22 14:15:50;;;;;;;25.00;23.40;;;;;;;;;;5039178;28;20455;-81
2023/04/22 14:18:17;;;;;;;25.80;24.17;;;;;;;;;;5039050;28;20455;-80
2023/04/22 14:20:44;;;;;;;25.00;23.47;;;;;;;;;;5039498;28;20506;-79
2023/04/22 14:23:11;;;;;;;25.23;23.73;;;;;;;;;;5037430;28;20447;-79